createdAt,value
2022-08-24T00:01:09.041Z,13.60
2022-08-24T00:03:42.900Z,9.10
2022-08-24T00:06:19.221Z,11.00
2022-08-24T00:08:52.656Z,14.40
2022-08-24T00:11:24.795Z,11.90
2022-08-24T00:13:57.446Z,13.50
2022-08-24T00:16:29.937Z,13.90
2022-08-24T00:19:02.045Z,11.00
2022-08-24T00:21:35.066Z,9.90
2022-08-24T00:24:07.987Z,10.90
2022-08-24T00:26:40.753Z,12.50
2022-08-24T00:29:14.702Z,10.60
2022-08-24T00:31:47.255Z,11.00
2022-08-24T00:34:20.052Z,10.70
2022-08-24T00:36:52.232Z,9.90
2022-08-24T00:39:24.775Z,9.50
2022-08-24T00:41:57.136Z,10.10
2022-08-24T00:44:30.406Z,13.00
2022-08-24T00:47:06.780Z,9.90
2022-08-24T00:49:43.463Z,12.40
2022-08-24T00:52:19.731Z,10.90
2022-08-24T00:54:56.531Z,13.00
2022-08-24T00:57:31.779Z,11.50
2022-08-24T01:00:09.852Z,15.60
2022-08-24T01:02:45.674Z,10.00
2022-08-24T01:05:19.462Z,13.50
2022-08-24T01:07:51.637Z,9.30
2022-08-24T01:10:28.049Z,10.50
2022-08-24T01:13:03.281Z,11.70
2022-08-24T01:15:42.857Z,12.10
2022-08-24T01:18:37.063Z,12.40
2022-08-24T01:21:15.889Z,13.90
2022-08-24T01:23:50.037Z,14.60
2022-08-24T01:26:27.193Z,13.90
2022-08-24T01:29:04.849Z,11.20
2022-08-24T01:31:38.923Z,11.00
2022-08-24T01:34:11.307Z,11.10
2022-08-24T01:36:46.565Z,12.20
2022-08-24T01:41:55.920Z,9.90
2022-08-24T01:44:34.286Z,13.40
2022-08-24T01:47:09.047Z,10.60
2022-08-24T01:49:43.815Z,10.00
2022-08-24T01:52:19.105Z,12.30
2022-08-24T01:54:51.242Z,11.50
2022-08-24T01:57:27.549Z,10.10
2022-08-24T02:00:02.209Z,9.70
2022-08-24T02:02:45.841Z,11.20
2022-08-24T02:05:18.719Z,9.60
2022-08-24T02:07:51.161Z,11.00
2022-08-24T02:10:23.742Z,17.50
2022-08-24T02:12:59.533Z,10.90
2022-08-24T02:15:36.421Z,10.00
2022-08-24T02:18:14.885Z,13.00
2022-08-24T02:20:48.317Z,11.80
2022-08-24T02:23:21.345Z,12.30
2022-08-24T02:25:53.947Z,14.80
2022-08-24T02:28:26.446Z,12.60
2022-08-24T02:30:58.802Z,12.10
2022-08-24T02:33:31.203Z,12.50
2022-08-24T02:36:04.094Z,11.30
2022-08-24T02:38:42.595Z,13.00
2022-08-24T02:41:19.125Z,12.60
2022-08-24T02:43:51.679Z,12.50
2022-08-24T02:46:26.859Z,14.00
2022-08-24T02:49:10.887Z,11.10
2022-08-24T02:51:48.494Z,11.30
2022-08-24T02:54:24.963Z,12.10
2022-08-24T02:56:57.480Z,14.30
2022-08-24T02:59:30.132Z,10.70
2022-08-24T03:02:03.122Z,13.40
2022-08-24T03:04:35.879Z,13.40
2022-08-24T03:07:08.779Z,10.70
2022-08-24T03:09:40.846Z,11.80
2022-08-24T03:12:13.239Z,14.70
2022-08-24T03:14:45.295Z,11.50
2022-08-24T03:17:17.474Z,12.70
2022-08-24T03:19:49.549Z,13.00
2022-08-24T03:22:22.083Z,11.40
2022-08-24T03:24:54.202Z,13.60
2022-08-24T03:27:27.017Z,12.00
2022-08-24T03:29:59.244Z,11.40
2022-08-24T03:32:32.320Z,12.70
2022-08-24T03:35:04.707Z,13.70
2022-08-24T03:37:37.573Z,15.70
2022-08-24T03:40:23.177Z,15.40
2022-08-24T03:42:58.703Z,13.30
2022-08-24T03:45:32.379Z,13.40
2022-08-24T03:48:05.447Z,11.20
2022-08-24T03:50:38.122Z,14.80
2022-08-24T03:53:10.176Z,12.10
2022-08-24T03:55:42.270Z,14.70
2022-08-24T03:58:14.619Z,14.00
2022-08-24T04:00:47.316Z,11.90
2022-08-24T04:03:19.604Z,12.80
2022-08-24T04:05:51.772Z,11.30
2022-08-24T04:08:25.591Z,11.50
2022-08-24T04:10:57.721Z,12.40
2022-08-24T04:13:32.199Z,10.20
2022-08-24T04:16:09.684Z,12.50
2022-08-24T04:18:42.636Z,11.40
2022-08-24T04:21:21.992Z,11.30
2022-08-24T04:23:55.096Z,13.00
2022-08-24T04:26:44.834Z,16.40
2022-08-24T04:29:21.189Z,12.60
2022-08-24T04:31:59.118Z,15.20
2022-08-24T04:34:31.489Z,12.50
2022-08-24T04:37:04.756Z,15.50
2022-08-24T04:39:42.592Z,14.00
2022-08-24T04:42:37.556Z,15.70
2022-08-24T04:45:11.868Z,12.00
2022-08-24T04:47:44.722Z,12.00
2022-08-24T04:50:17.316Z,13.30
2022-08-24T04:52:56.431Z,12.70
2022-08-24T04:55:29.048Z,14.90
2022-08-24T04:58:02.544Z,12.60
2022-08-24T05:00:34.694Z,14.80
2022-08-24T05:03:07.581Z,14.50
2022-08-24T05:05:43.103Z,10.60
2022-08-24T05:08:16.105Z,16.80
2022-08-24T05:10:51.071Z,13.00
2022-08-24T05:13:23.709Z,14.50
2022-08-24T05:15:55.855Z,15.10
2022-08-24T05:18:30.050Z,13.80
2022-08-24T05:21:02.548Z,14.50
2022-08-24T05:23:35.392Z,13.70
2022-08-24T05:26:10.586Z,17.30
2022-08-24T05:28:43.733Z,14.80
2022-08-24T05:31:19.985Z,21.90
2022-08-24T05:33:52.643Z,27.40
2022-08-24T05:36:27.052Z,28.30
2022-08-24T05:39:00.813Z,25.10
2022-08-24T05:41:33.204Z,26.30
2022-08-24T05:44:14.367Z,29.00
2022-08-24T05:46:47.717Z,30.60
2022-08-24T05:49:19.838Z,37.90
2022-08-24T05:51:51.990Z,33.80
2022-08-24T05:54:27.032Z,40.20
2022-08-24T05:57:05.273Z,24.30
2022-08-24T05:59:49.331Z,30.70
2022-08-24T06:02:23.801Z,23.90
2022-08-24T06:04:56.601Z,28.70
2022-08-24T06:07:28.755Z,27.00
2022-08-24T06:10:20.281Z,36.00
2022-08-24T06:12:54.119Z,38.40
2022-08-24T06:15:26.338Z,48.60
2022-08-24T06:17:58.827Z,29.40
2022-08-24T06:20:31.819Z,33.90
2022-08-24T06:23:04.034Z,40.50
2022-08-24T06:26:00.748Z,31.20
2022-08-24T06:28:33.830Z,31.20
2022-08-24T06:31:07.687Z,40.90
2022-08-24T06:33:39.913Z,33.70
2022-08-24T06:36:12.644Z,27.40
2022-08-24T06:38:45.420Z,28.90
2022-08-24T06:41:20.748Z,34.20
2022-08-24T06:43:53.178Z,24.80
2022-08-24T06:46:32.863Z,22.70
2022-08-24T06:49:05.866Z,25.30
2022-08-24T06:51:40.574Z,19.50
2022-08-24T06:54:13.412Z,16.00
2022-08-24T06:56:46.275Z,19.80
2022-08-24T06:59:19.185Z,28.20
2022-08-24T07:01:51.371Z,28.10
2022-08-24T07:04:28.002Z,26.40
2022-08-24T07:07:09.729Z,27.80
2022-08-24T07:09:42.740Z,22.30
2022-08-24T07:12:14.831Z,36.00
2022-08-24T07:14:47.318Z,24.90
2022-08-24T07:17:19.438Z,22.80
2022-08-24T07:19:51.973Z,24.30
2022-08-24T07:22:47.080Z,24.30
2022-08-24T07:25:19.988Z,29.20
2022-08-24T07:27:52.772Z,21.30
2022-08-24T07:30:27.644Z,28.80
2022-08-24T07:33:01.265Z,33.20
2022-08-24T07:35:34.903Z,29.00
2022-08-24T07:38:08.879Z,31.10
2022-08-24T07:41:05.210Z,27.10
2022-08-24T07:43:33.621Z,25.30
2022-08-24T07:46:08.398Z,29.60
2022-08-24T07:48:41.995Z,25.10
2022-08-24T07:51:16.258Z,30.00
2022-08-24T07:53:53.880Z,39.60
2022-08-24T07:56:31.889Z,30.60
2022-08-24T07:59:08.697Z,26.20
2022-08-24T08:01:45.318Z,29.30
2022-08-24T08:04:22.019Z,28.70
2022-08-24T08:09:33.071Z,27.50
2022-08-24T08:12:06.616Z,27.70
2022-08-24T08:14:39.073Z,23.60
2022-08-24T08:17:11.196Z,26.20
2022-08-24T08:19:43.963Z,25.60
2022-08-24T08:22:33.630Z,32.20
2022-08-24T08:25:24.985Z,38.50
2022-08-24T08:28:04.265Z,28.20
2022-08-24T08:30:45.748Z,23.70
2022-08-24T08:33:19.122Z,28.00
2022-08-24T08:35:53.988Z,26.20
2022-08-24T08:38:27.333Z,34.30
2022-08-24T08:41:09.692Z,28.70
2022-08-24T08:43:48.499Z,35.40
2022-08-24T08:46:33.948Z,26.40
2022-08-24T08:49:44.204Z,29.90
2022-08-24T08:52:47.970Z,29.90
2022-08-24T08:55:31.912Z,26.60
2022-08-24T08:58:18.281Z,28.40
2022-08-24T09:01:04.748Z,32.20
2022-08-24T09:03:57.944Z,28.00
2022-08-24T09:07:03.226Z,24.10
2022-08-24T09:10:05.805Z,28.40
2022-08-24T09:12:55.855Z,34.20
2022-08-24T09:15:58.027Z,32.20
2022-08-24T09:18:45.040Z,32.00
2022-08-24T09:21:41.633Z,24.90
2022-08-24T09:24:37.362Z,22.70
2022-08-24T09:27:24.759Z,36.60
2022-08-24T09:30:09.896Z,32.60
2022-08-24T09:32:59.195Z,22.20
2022-08-24T09:35:49.514Z,28.20
2022-08-24T09:39:00.199Z,25.00
2022-08-24T09:42:15.438Z,23.90
2022-08-24T09:45:17.859Z,28.60
2022-08-24T09:48:16.035Z,29.90
2022-08-24T09:51:09.891Z,34.00
2022-08-24T09:54:07.671Z,22.10
2022-08-24T09:57:12.475Z,26.00
2022-08-24T10:00:08.270Z,22.20
2022-08-24T10:02:59.515Z,22.70
2022-08-24T10:05:44.956Z,18.30
2022-08-24T10:08:30.223Z,18.10
2022-08-24T10:11:14.810Z,22.10
2022-08-24T10:13:56.928Z,20.90
2022-08-24T10:16:40.138Z,17.20
2022-08-24T10:19:32.547Z,20.20
2022-08-24T10:22:17.283Z,18.40
2022-08-24T10:25:05.300Z,18.70
2022-08-24T10:27:47.905Z,19.20
2022-08-24T10:30:48.556Z,17.20
2022-08-24T10:33:25.572Z,20.60
2022-08-24T10:36:27.926Z,20.40
2022-08-24T10:39:40.736Z,18.90
2022-08-24T10:43:02.515Z,25.00
2022-08-24T10:45:57.081Z,18.20
2022-08-24T10:48:59.973Z,17.80
2022-08-24T10:51:50.394Z,23.90
2022-08-24T10:54:24.116Z,28.80
2022-08-24T10:57:02.651Z,25.10
2022-08-24T10:59:42.479Z,23.40
2022-08-24T11:02:34.806Z,29.80
2022-08-24T11:05:13.120Z,24.50
2022-08-24T11:07:59.419Z,30.60
2022-08-24T11:10:34.557Z,27.30
2022-08-24T11:13:24.456Z,37.60
2022-08-24T11:15:58.369Z,34.10
2022-08-24T11:18:50.416Z,33.10
2022-08-24T11:21:41.816Z,33.80
2022-08-24T11:24:27.603Z,32.00
2022-08-24T11:27:03.965Z,27.10
2022-08-24T11:30:00.799Z,37.20
2022-08-24T11:32:39.092Z,37.90
2022-08-24T11:35:21.146Z,37.30
2022-08-24T11:37:56.193Z,37.40
2022-08-24T11:40:35.107Z,38.60
2022-08-24T11:43:27.781Z,41.10
2022-08-24T11:46:14.836Z,34.10
2022-08-24T11:48:59.902Z,54.40
2022-08-24T11:51:42.261Z,39.50
2022-08-24T11:54:24.817Z,38.40
2022-08-24T11:57:09.148Z,40.40
2022-08-24T11:59:52.048Z,41.50
2022-08-24T12:02:32.824Z,46.10
2022-08-24T12:05:16.231Z,41.30
2022-08-24T12:07:59.692Z,39.70
2022-08-24T12:10:47.928Z,38.00
2022-08-24T12:13:33.761Z,50.10
2022-08-24T12:16:17.630Z,42.10
2022-08-24T12:18:56.818Z,34.20
2022-08-24T12:21:33.745Z,37.20
2022-08-24T12:24:10.367Z,35.60
2022-08-24T12:26:46.752Z,44.70
2022-08-24T12:29:31.716Z,43.50
2022-08-24T12:32:08.312Z,42.60
2022-08-24T12:34:50.058Z,38.30
2022-08-24T12:37:28.566Z,42.20
2022-08-24T12:40:08.861Z,43.10
2022-08-24T12:42:52.607Z,49.30
2022-08-24T12:45:26.773Z,39.80
2022-08-24T12:48:03.969Z,37.50
2022-08-24T12:50:49.631Z,32.80
2022-08-24T12:53:43.312Z,40.80
2022-08-24T12:57:02.634Z,42.90
2022-08-24T12:59:42.124Z,36.90
2022-08-24T13:05:23.948Z,42.80
2022-08-24T13:08:14.032Z,37.00
2022-08-24T13:10:54.809Z,43.90
2022-08-24T13:13:44.825Z,40.60
2022-08-24T13:16:51.107Z,44.10
2022-08-24T13:19:38.812Z,42.30
2022-08-24T13:22:48.312Z,50.60
2022-08-24T13:25:53.364Z,44.70
2022-08-24T13:28:39.251Z,46.40
2022-08-24T13:31:31.627Z,40.00
2022-08-24T13:34:41.511Z,48.90
2022-08-24T13:37:22.448Z,47.20
2022-08-24T13:40:15.103Z,39.60
2022-08-24T13:43:08.718Z,52.90
2022-08-24T13:45:47.458Z,50.70
2022-08-24T13:48:38.931Z,50.70
2022-08-24T13:51:36.475Z,43.30
2022-08-24T13:54:27.903Z,43.40
2022-08-24T13:57:13.868Z,46.10
2022-08-24T14:00:12.668Z,48.60
2022-08-24T14:03:06.661Z,54.00
2022-08-24T14:05:47.618Z,45.70
2022-08-24T14:08:32.061Z,46.10
2022-08-24T14:11:12.241Z,49.50
2022-08-24T14:14:01.977Z,45.00
2022-08-24T14:17:19.634Z,51.80
2022-08-24T14:20:04.626Z,38.20
2022-08-24T14:22:53.129Z,48.70
2022-08-24T14:25:30.404Z,60.80
2022-08-24T14:28:38.116Z,56.10
2022-08-24T14:31:21.495Z,61.00
2022-08-24T14:34:12.688Z,65.30
2022-08-24T14:36:57.286Z,53.10
2022-08-24T14:39:40.461Z,51.00
2022-08-24T14:42:23.149Z,58.00
2022-08-24T14:45:06.475Z,57.50
2022-08-24T14:47:52.394Z,64.60
2022-08-24T14:50:31.696Z,52.60
2022-08-24T14:53:24.081Z,57.30
2022-08-24T14:56:09.089Z,56.10
2022-08-24T14:58:51.007Z,58.20
2022-08-24T15:01:41.326Z,66.60
2022-08-24T15:04:38.466Z,60.60
2022-08-24T15:07:29.568Z,65.50
2022-08-24T15:10:04.469Z,53.50
2022-08-24T15:12:44.205Z,72.40
2022-08-24T15:15:28.461Z,58.80
2022-08-24T15:18:07.920Z,62.50
2022-08-24T15:21:01.125Z,52.00
2022-08-24T15:23:47.218Z,56.10
2022-08-24T15:26:28.804Z,68.30
2022-08-24T15:29:13.331Z,59.90
2022-08-24T15:31:56.091Z,60.30
2022-08-24T15:34:40.041Z,64.20
2022-08-24T15:37:12.676Z,64.80
2022-08-24T15:39:46.076Z,58.30
2022-08-24T15:42:19.303Z,71.10
2022-08-24T15:44:53.759Z,63.60
2022-08-24T15:47:31.310Z,66.10
2022-08-24T15:50:07.767Z,68.00
2022-08-24T15:52:57.777Z,67.40
2022-08-24T15:55:38.422Z,65.20
2022-08-24T15:58:33.621Z,60.80
2022-08-24T16:01:42.606Z,78.30
2022-08-24T16:04:41.159Z,75.70
2022-08-24T16:07:23.145Z,75.10
2022-08-24T16:10:09.939Z,67.00
2022-08-24T16:12:42.773Z,73.00
2022-08-24T16:15:19.378Z,63.80
2022-08-24T16:20:36.024Z,76.40
2022-08-24T16:23:11.869Z,59.60
2022-08-24T16:25:51.203Z,61.60
2022-08-24T16:28:39.135Z,63.90
2022-08-24T16:31:12.583Z,70.60
2022-08-24T16:33:49.118Z,67.00
2022-08-24T16:36:22.511Z,59.90
2022-08-24T16:38:55.119Z,65.20
2022-08-24T16:41:27.820Z,68.40
2022-08-24T16:44:01.480Z,57.20
2022-08-24T16:46:33.978Z,56.50
2022-08-24T16:49:08.716Z,69.60
2022-08-24T16:51:45.309Z,67.70
2022-08-24T16:54:19.908Z,58.60
2022-08-24T16:56:52.414Z,64.50
2022-08-24T16:59:28.841Z,66.30
2022-08-24T17:02:02.105Z,69.20
2022-08-24T17:04:34.619Z,63.00
2022-08-24T17:07:10.091Z,75.00
2022-08-24T17:09:57.656Z,58.10
2022-08-24T17:12:32.196Z,72.20
2022-08-24T17:15:05.200Z,68.60
2022-08-24T17:17:38.477Z,84.60
2022-08-24T17:20:12.377Z,62.40
2022-08-24T17:22:44.404Z,64.30
2022-08-24T17:25:16.583Z,70.90
2022-08-24T17:27:49.301Z,65.10
2022-08-24T17:30:23.542Z,68.30
2022-08-24T17:32:56.306Z,65.30
2022-08-24T17:35:31.703Z,62.20
2022-08-24T17:38:04.647Z,65.90
2022-08-24T17:40:37.882Z,63.90
2022-08-24T17:43:10.672Z,57.50
2022-08-24T17:45:43.510Z,68.50
2022-08-24T17:48:22.523Z,66.20
2022-08-24T17:50:54.888Z,58.50
2022-08-24T17:53:27.084Z,59.90
2022-08-24T17:55:59.338Z,66.80
2022-08-24T17:58:31.884Z,65.60
2022-08-24T18:01:04.153Z,76.30
2022-08-24T18:03:36.407Z,55.10
2022-08-24T18:06:09.046Z,65.10
2022-08-24T18:08:41.210Z,53.80
2022-08-24T18:11:13.308Z,59.60
2022-08-24T18:13:45.503Z,60.10
2022-08-24T18:16:22.219Z,59.80
2022-08-24T18:18:55.498Z,46.90
2022-08-24T18:21:27.573Z,54.90
2022-08-24T18:24:01.534Z,49.80
2022-08-24T18:26:34.130Z,44.50
2022-08-24T18:29:15.091Z,57.30
2022-08-24T18:31:48.091Z,49.10
2022-08-24T18:34:22.951Z,50.40
2022-08-24T18:36:55.869Z,47.40
2022-08-24T18:39:27.936Z,47.40
2022-08-24T18:42:02.521Z,38.80
2022-08-24T18:44:35.094Z,48.00
2022-08-24T18:47:08.069Z,45.90
2022-08-24T18:49:40.153Z,53.20
2022-08-24T18:52:16.607Z,47.50
2022-08-24T18:54:51.119Z,52.80
2022-08-24T18:57:23.486Z,61.70
2022-08-24T18:59:55.891Z,56.30
2022-08-24T19:02:34.267Z,47.30
2022-08-24T19:05:10.821Z,47.60
2022-08-24T19:10:18.865Z,51.70
2022-08-24T19:12:54.028Z,59.40
2022-08-24T19:15:30.894Z,47.00
2022-08-24T19:18:12.756Z,50.10
2022-08-24T19:20:48.522Z,48.10
2022-08-24T19:23:25.962Z,55.00
2022-08-24T19:26:00.473Z,42.10
2022-08-24T19:28:33.286Z,50.90
2022-08-24T19:31:08.901Z,42.20
2022-08-24T19:33:46.543Z,45.40
2022-08-24T19:36:23.508Z,49.90
2022-08-24T19:38:55.738Z,37.50
2022-08-24T19:41:36.895Z,48.10
2022-08-24T19:44:28.061Z,40.10
2022-08-24T19:47:00.351Z,30.30
2022-08-24T19:49:34.331Z,31.50
2022-08-24T19:52:07.693Z,42.30
2022-08-24T19:54:42.340Z,30.80
2022-08-24T19:57:46.310Z,29.80
2022-08-24T20:00:35.554Z,23.70
2022-08-24T20:03:08.681Z,22.10
2022-08-24T20:05:41.232Z,22.00
2022-08-24T20:08:14.336Z,28.20
2022-08-24T20:10:46.390Z,25.20
2022-08-24T20:13:18.793Z,23.00
2022-08-24T20:15:51.096Z,19.50
2022-08-24T20:18:27.863Z,17.20
2022-08-24T20:23:31.679Z,23.80
2022-08-24T20:26:06.805Z,20.40
2022-08-24T20:28:44.274Z,16.90
2022-08-24T20:31:17.818Z,19.60
2022-08-24T20:33:52.256Z,16.30
2022-08-24T20:36:28.729Z,17.00
2022-08-24T20:39:02.164Z,12.90
2022-08-24T20:41:35.710Z,14.00
2022-08-24T20:44:09.384Z,17.10
2022-08-24T20:46:46.552Z,13.50
2022-08-24T20:49:20.932Z,12.50
2022-08-24T20:51:52.990Z,19.60
2022-08-24T20:54:25.141Z,17.30
2022-08-24T20:56:57.358Z,14.70
2022-08-24T20:59:30.515Z,17.80
2022-08-24T21:02:03.162Z,13.70
2022-08-24T21:04:35.274Z,20.20
2022-08-24T21:07:10.509Z,18.50
2022-08-24T21:09:43.119Z,13.10
2022-08-24T21:12:15.757Z,21.80
2022-08-24T21:14:47.812Z,19.40
2022-08-24T21:17:25.460Z,19.40
2022-08-24T21:19:57.525Z,14.60
2022-08-24T21:22:29.713Z,18.10
2022-08-24T21:25:01.844Z,19.60
2022-08-24T21:27:35.303Z,17.60
2022-08-24T21:30:10.851Z,17.60
2022-08-24T21:33:00.379Z,17.60
2022-08-24T21:35:32.538Z,18.80
2022-08-24T21:38:05.723Z,20.50
2022-08-24T21:40:40.044Z,18.10
2022-08-24T21:43:14.619Z,16.00
2022-08-24T21:45:50.897Z,17.20
2022-08-24T21:48:23.002Z,16.70
2022-08-24T21:50:55.257Z,19.80
2022-08-24T21:53:28.687Z,21.60
2022-08-24T21:56:03.006Z,15.30
2022-08-24T21:58:35.141Z,18.40
2022-08-24T22:01:08.281Z,17.60
2022-08-24T22:03:40.515Z,15.80
2022-08-24T22:06:13.901Z,15.20
2022-08-24T22:08:46.293Z,16.10
2022-08-24T22:11:20.300Z,17.10
2022-08-24T22:13:52.551Z,13.70
2022-08-24T22:16:25.612Z,18.90
2022-08-24T22:18:57.763Z,18.00
2022-08-24T22:21:36.097Z,21.30
2022-08-24T22:24:09.308Z,19.40
2022-08-24T22:26:42.210Z,19.20
2022-08-24T22:29:14.346Z,16.60
2022-08-24T22:31:47.034Z,13.00
2022-08-24T22:34:20.821Z,11.90
2022-08-24T22:36:56.957Z,13.30
2022-08-24T22:39:29.039Z,13.90
2022-08-24T22:42:01.530Z,13.50
2022-08-24T22:44:34.042Z,17.70
2022-08-24T22:47:13.109Z,14.20
2022-08-24T22:49:47.476Z,11.50
2022-08-24T22:52:19.583Z,14.30
2022-08-24T22:54:51.689Z,9.80
2022-08-24T22:57:23.741Z,12.60
2022-08-24T22:59:55.806Z,15.70
2022-08-24T23:02:27.961Z,12.70
2022-08-24T23:05:00.016Z,11.40
2022-08-24T23:07:32.149Z,14.30
2022-08-24T23:10:04.852Z,12.30
2022-08-24T23:12:36.881Z,11.80
2022-08-24T23:15:10.935Z,16.10
2022-08-24T23:17:43.729Z,13.70
2022-08-24T23:20:15.876Z,12.90
2022-08-24T23:22:49.988Z,15.00
2022-08-24T23:25:22.233Z,11.00
2022-08-24T23:27:54.508Z,9.80
2022-08-24T23:30:26.732Z,12.30
2022-08-24T23:32:59.066Z,16.10
2022-08-24T23:35:31.430Z,12.10
2022-08-24T23:38:03.661Z,14.60
2022-08-24T23:40:35.856Z,13.70
2022-08-24T23:43:07.987Z,9.60
2022-08-24T23:45:41.779Z,11.90
2022-08-24T23:48:13.939Z,12.50
2022-08-24T23:50:48.951Z,12.90
2022-08-24T23:53:21.043Z,13.80
2022-08-24T23:55:54.173Z,14.00
2022-08-24T23:58:26.414Z,11.90
